createdAt,value
2022-08-19T00:00:37.506Z,1000.29
2022-08-19T00:01:37.980Z,1000.29
2022-08-19T00:02:37.485Z,1000.27
2022-08-19T00:03:38.466Z,1000.29
2022-08-19T00:04:37.857Z,1000.27
2022-08-19T00:05:37.462Z,1000.28
2022-08-19T00:06:37.417Z,1000.26
2022-08-19T00:07:37.412Z,1000.29
2022-08-19T00:08:37.401Z,1000.29
2022-08-19T00:09:38.461Z,1000.24
2022-08-19T00:10:37.376Z,1000.28
2022-08-19T00:11:37.379Z,1000.26
2022-08-19T00:12:37.349Z,1000.28
2022-08-19T00:13:38.344Z,1000.26
2022-08-19T00:14:37.367Z,1000.30
2022-08-19T00:15:37.306Z,1000.27
2022-08-19T00:16:37.312Z,1000.27
2022-08-19T00:17:37.298Z,1000.31
2022-08-19T00:18:37.294Z,1000.31
2022-08-19T00:19:37.330Z,1000.36
2022-08-19T00:20:37.271Z,1000.37
2022-08-19T00:21:37.284Z,1000.36
2022-08-19T00:22:37.235Z,1000.38
2022-08-19T00:23:37.234Z,1000.36
2022-08-19T00:24:37.271Z,1000.31
2022-08-19T00:25:37.220Z,1000.28
2022-08-19T00:26:37.214Z,1000.29
2022-08-19T00:27:37.193Z,1000.27
2022-08-19T00:28:37.189Z,1000.25
2022-08-19T00:29:37.221Z,1000.26
2022-08-19T00:30:37.159Z,1000.25
2022-08-19T00:31:37.147Z,1000.24
2022-08-19T00:32:37.146Z,1000.23
2022-08-19T00:33:37.126Z,1000.23
2022-08-19T00:34:37.157Z,1000.19
2022-08-19T00:35:37.114Z,1000.19
2022-08-19T00:36:37.085Z,1000.21
2022-08-19T00:37:37.090Z,1000.20
2022-08-19T00:38:38.022Z,1000.21
2022-08-19T00:39:37.151Z,1000.21
2022-08-19T00:40:37.030Z,1000.27
2022-08-19T00:41:37.030Z,1000.25
2022-08-19T00:42:37.006Z,1000.24
2022-08-19T00:43:37.006Z,1000.24
2022-08-19T00:44:37.027Z,1000.23
2022-08-19T00:45:36.996Z,1000.25
2022-08-19T00:46:36.988Z,1000.20
2022-08-19T00:47:36.974Z,1000.14
2022-08-19T00:48:36.950Z,1000.14
2022-08-19T00:49:36.974Z,1000.13
2022-08-19T00:50:36.939Z,1000.18
2022-08-19T00:51:37.930Z,1000.23
2022-08-19T00:52:36.902Z,1000.21
2022-08-19T00:53:36.911Z,1000.17
2022-08-19T00:54:36.929Z,1000.15
2022-08-19T00:55:36.891Z,1000.16
2022-08-19T00:56:36.849Z,1000.16
2022-08-19T00:57:36.847Z,1000.11
2022-08-19T00:58:36.837Z,1000.16
2022-08-19T00:59:56.152Z,1000.14
2022-08-19T01:00:37.809Z,1000.10
2022-08-19T01:01:36.873Z,1000.11
2022-08-19T01:02:36.795Z,1000.07
2022-08-19T01:03:57.233Z,1000.03
2022-08-19T01:04:37.828Z,1000.03
2022-08-19T01:05:36.770Z,1000.06
2022-08-19T01:06:36.755Z,1000.06
2022-08-19T01:07:38.430Z,1000.11
2022-08-19T01:08:36.716Z,1000.11
2022-08-19T01:09:36.764Z,1000.08
2022-08-19T01:10:37.032Z,1000.09
2022-08-19T01:11:36.678Z,1000.11
2022-08-19T01:12:36.660Z,1000.10
2022-08-19T01:13:49.570Z,1000.02
2022-08-19T01:14:37.685Z,1000.04
2022-08-19T01:15:36.646Z,1000.05
2022-08-19T01:16:36.645Z,1000.01
2022-08-19T01:17:36.622Z,1000.01
2022-08-19T01:18:36.627Z,1000.01
2022-08-19T01:19:44.405Z,1000.03
2022-08-19T01:20:37.572Z,1000.02
2022-08-19T01:21:36.594Z,1000.01
2022-08-19T01:22:36.562Z,1000.01
2022-08-19T01:23:36.573Z,999.99
2022-08-19T01:24:36.595Z,1000.00
2022-08-19T01:25:37.544Z,999.95
2022-08-19T01:26:36.529Z,999.89
2022-08-19T01:27:43.001Z,999.94
2022-08-19T01:28:39.841Z,999.91
2022-08-19T01:29:36.542Z,999.93
2022-08-19T01:30:36.469Z,999.94
2022-08-19T01:31:36.465Z,999.98
2022-08-19T01:32:36.463Z,999.98
2022-08-19T01:33:36.454Z,1000.02
2022-08-19T01:34:36.499Z,1000.09
2022-08-19T01:35:36.427Z,1000.08
2022-08-19T01:36:36.394Z,1000.15
2022-08-19T01:37:36.410Z,1000.17
2022-08-19T01:38:36.396Z,1000.18
2022-08-19T01:39:37.501Z,1000.14
2022-08-19T01:40:36.350Z,1000.14
2022-08-19T01:41:36.330Z,1000.15
2022-08-19T01:42:36.339Z,1000.15
2022-08-19T01:43:36.319Z,1000.12
2022-08-19T01:44:36.373Z,1000.10
2022-08-19T01:45:36.299Z,1000.10
2022-08-19T01:46:36.314Z,1000.17
2022-08-19T01:47:36.289Z,1000.18
2022-08-19T01:48:36.281Z,1000.18
2022-08-19T01:49:36.266Z,1000.18
2022-08-19T01:50:36.299Z,1000.17
2022-08-19T01:51:39.935Z,1000.15
2022-08-19T01:52:36.227Z,1000.17
2022-08-19T01:53:36.240Z,1000.15
2022-08-19T01:54:36.200Z,1000.20
2022-08-19T01:55:36.234Z,1000.20
2022-08-19T01:56:36.199Z,1000.20
2022-08-19T01:57:36.162Z,1000.19
2022-08-19T01:58:36.169Z,1000.23
2022-08-19T01:59:36.130Z,1000.23
2022-08-19T02:00:36.176Z,1000.24
2022-08-19T02:01:36.230Z,1000.25
2022-08-19T02:02:36.098Z,1000.24
2022-08-19T02:03:36.090Z,1000.17
2022-08-19T02:04:36.093Z,1000.19
2022-08-19T02:05:36.114Z,1000.15
2022-08-19T02:06:36.064Z,1000.12
2022-08-19T02:07:36.047Z,1000.13
2022-08-19T02:08:36.049Z,1000.09
2022-08-19T02:09:36.018Z,1000.06
2022-08-19T02:10:36.058Z,1000.06
2022-08-19T02:11:35.971Z,1000.14
2022-08-19T02:12:35.985Z,1000.12
2022-08-19T02:13:35.977Z,1000.15
2022-08-19T02:14:35.960Z,1000.14
2022-08-19T02:15:36.024Z,1000.12
2022-08-19T02:16:35.946Z,1000.11
2022-08-19T02:17:35.945Z,1000.11
2022-08-19T02:18:35.932Z,1000.12
2022-08-19T02:19:35.898Z,1000.10
2022-08-19T02:20:35.938Z,1000.14
2022-08-19T02:21:35.871Z,1000.08
2022-08-19T02:22:35.880Z,1000.08
2022-08-19T02:23:35.858Z,1000.11
2022-08-19T02:24:35.874Z,1000.12
2022-08-19T02:25:35.892Z,1000.19
2022-08-19T02:26:35.823Z,1000.16
2022-08-19T02:27:35.818Z,1000.15
2022-08-19T02:28:35.807Z,1000.13
2022-08-19T02:29:35.849Z,1000.10
2022-08-19T02:30:35.769Z,1000.07
2022-08-19T02:31:35.794Z,1000.12
2022-08-19T02:32:35.767Z,1000.12
2022-08-19T02:33:36.757Z,1000.13
2022-08-19T02:34:35.807Z,1000.14
2022-08-19T02:35:35.743Z,1000.15
2022-08-19T02:36:35.732Z,1000.17
2022-08-19T02:37:35.699Z,1000.20
2022-08-19T02:38:35.734Z,1000.18
2022-08-19T02:39:35.777Z,1000.23
2022-08-19T02:40:35.653Z,1000.18
2022-08-19T02:41:35.644Z,1000.23
2022-08-19T02:42:35.638Z,1000.22
2022-08-19T02:43:35.658Z,1000.17
2022-08-19T02:44:35.677Z,1000.13
2022-08-19T02:45:35.611Z,1000.13
2022-08-19T02:46:35.597Z,1000.09
2022-08-19T02:47:35.599Z,1000.10
2022-08-19T02:48:35.571Z,1000.08
2022-08-19T02:49:35.617Z,1000.06
2022-08-19T02:50:35.559Z,1000.07
2022-08-19T02:51:35.550Z,1000.08
2022-08-19T02:52:35.539Z,1000.12
2022-08-19T02:53:35.526Z,1000.17
2022-08-19T02:54:35.554Z,1000.17
2022-08-19T02:55:45.808Z,1000.21
2022-08-19T02:56:36.514Z,1000.22
2022-08-19T02:57:35.477Z,1000.24
2022-08-19T02:58:35.497Z,1000.25
2022-08-19T02:59:35.504Z,1000.21
2022-08-19T03:00:35.446Z,1000.25
2022-08-19T03:01:36.452Z,1000.25
2022-08-19T03:02:35.425Z,1000.25
2022-08-19T03:03:35.426Z,1000.29
2022-08-19T03:04:35.399Z,1000.31
2022-08-19T03:05:47.971Z,1000.33
2022-08-19T03:06:36.386Z,1000.36
2022-08-19T03:07:35.348Z,1000.33
2022-08-19T03:08:35.360Z,1000.36
2022-08-19T03:09:35.338Z,1000.36
2022-08-19T03:10:35.365Z,1000.41
2022-08-19T03:11:35.303Z,1000.42
2022-08-19T03:12:35.292Z,1000.41
2022-08-19T03:13:35.294Z,1000.44
2022-08-19T03:14:35.281Z,1000.46
2022-08-19T03:15:35.310Z,1000.37
2022-08-19T03:16:35.261Z,1000.35
2022-08-19T03:17:35.254Z,1000.32
2022-08-19T03:18:35.240Z,1000.29
2022-08-19T03:19:35.235Z,1000.29
2022-08-19T03:20:35.275Z,1000.27
2022-08-19T03:21:35.209Z,1000.29
2022-08-19T03:22:35.191Z,1000.21
2022-08-19T03:23:35.178Z,1000.25
2022-08-19T03:24:35.206Z,1000.29
2022-08-19T03:25:35.210Z,1000.29
2022-08-19T03:26:35.158Z,1000.27
2022-08-19T03:27:35.137Z,1000.30
2022-08-19T03:28:35.134Z,1000.28
2022-08-19T03:29:35.108Z,1000.31
2022-08-19T03:30:36.162Z,1000.33
2022-08-19T03:31:44.563Z,1000.31
2022-08-19T03:32:36.084Z,1000.37
2022-08-19T03:33:36.068Z,1000.37
2022-08-19T03:34:35.062Z,1000.37
2022-08-19T03:35:35.088Z,1000.41
2022-08-19T03:36:35.032Z,1000.38
2022-08-19T03:37:35.042Z,1000.45
2022-08-19T03:38:35.012Z,1000.43
2022-08-19T03:39:35.051Z,1000.47
2022-08-19T03:40:35.025Z,1000.49
2022-08-19T03:41:45.152Z,1000.50
2022-08-19T03:42:48.826Z,1000.53
2022-08-19T03:43:35.962Z,1000.54
2022-08-19T03:44:34.960Z,1000.55
2022-08-19T03:45:34.999Z,1000.59
2022-08-19T03:46:34.942Z,1000.61
2022-08-19T03:47:34.908Z,1000.56
2022-08-19T03:48:34.918Z,1000.54
2022-08-19T03:49:34.901Z,1000.50
2022-08-19T03:50:34.938Z,1000.50
2022-08-19T03:51:34.875Z,1000.45
2022-08-19T03:52:34.882Z,1000.45
2022-08-19T03:53:34.855Z,1000.46
2022-08-19T03:54:34.838Z,1000.40
2022-08-19T03:55:34.871Z,1000.43
2022-08-19T03:56:34.858Z,1000.43
2022-08-19T03:57:34.822Z,1000.45
2022-08-19T03:58:34.796Z,1000.47
2022-08-19T03:59:34.794Z,1000.48
2022-08-19T04:00:34.830Z,1000.45
2022-08-19T04:01:34.949Z,1000.47
2022-08-19T04:02:34.772Z,1000.42
2022-08-19T04:03:34.765Z,1000.42
2022-08-19T04:04:34.754Z,1000.37
2022-08-19T04:05:34.778Z,1000.37
2022-08-19T04:06:34.725Z,1000.35
2022-08-19T04:07:34.733Z,1000.35
2022-08-19T04:08:34.675Z,1000.38
2022-08-19T04:09:34.677Z,1000.42
2022-08-19T04:10:34.696Z,1000.43
2022-08-19T04:11:43.039Z,1000.46
2022-08-19T04:12:35.642Z,1000.45
2022-08-19T04:13:34.634Z,1000.47
2022-08-19T04:14:34.666Z,1000.47
2022-08-19T04:15:34.662Z,1000.43
2022-08-19T04:16:35.288Z,1000.43
2022-08-19T04:17:34.573Z,1000.41
2022-08-19T04:18:36.471Z,1000.42
2022-08-19T04:19:34.551Z,1000.47
2022-08-19T04:20:34.595Z,1000.47
2022-08-19T04:21:34.540Z,1000.48
2022-08-19T04:22:34.543Z,1000.54
2022-08-19T04:23:34.525Z,1000.52
2022-08-19T04:24:34.483Z,1000.53
2022-08-19T04:25:34.535Z,1000.50
2022-08-19T04:26:34.482Z,1000.52
2022-08-19T04:27:34.464Z,1000.54
2022-08-19T04:28:34.462Z,1000.50
2022-08-19T04:29:34.448Z,1000.46
2022-08-19T04:30:34.513Z,1000.49
2022-08-19T04:31:34.426Z,1000.48
2022-08-19T04:32:34.415Z,1000.51
2022-08-19T04:33:34.407Z,1000.55
2022-08-19T04:34:34.386Z,1000.59
2022-08-19T04:35:34.418Z,1000.59
2022-08-19T04:36:34.375Z,1000.65
2022-08-19T04:37:35.473Z,1000.63
2022-08-19T04:38:34.321Z,1000.66
2022-08-19T04:39:34.340Z,1000.61
2022-08-19T04:40:34.295Z,1000.63
2022-08-19T04:41:34.328Z,1000.61
2022-08-19T04:42:34.287Z,1000.61
2022-08-19T04:43:34.320Z,1000.59
2022-08-19T04:44:35.221Z,1000.58
2022-08-19T04:45:39.679Z,1000.51
2022-08-19T04:46:39.536Z,1000.50
2022-08-19T04:47:47.967Z,1000.54
2022-08-19T04:48:35.345Z,1000.55
2022-08-19T04:49:34.205Z,1000.51
2022-08-19T04:50:34.201Z,1000.52
2022-08-19T04:51:34.227Z,1000.54
2022-08-19T04:52:34.184Z,1000.48
2022-08-19T04:53:37.699Z,1000.45
2022-08-19T04:54:37.489Z,1000.49
2022-08-19T04:55:38.261Z,1000.47
2022-08-19T04:56:34.187Z,1000.44
2022-08-19T04:57:34.134Z,1000.46
2022-08-19T04:58:34.105Z,1000.37
2022-08-19T04:59:34.088Z,1000.39
2022-08-19T05:00:34.095Z,1000.41
2022-08-19T05:01:34.114Z,1000.42
2022-08-19T05:02:34.081Z,1000.43
2022-08-19T05:03:34.067Z,1000.46
2022-08-19T05:04:34.061Z,1000.47
2022-08-19T05:05:45.213Z,1000.50
2022-08-19T05:06:35.066Z,1000.56
2022-08-19T05:07:33.997Z,1000.52
2022-08-19T05:08:33.972Z,1000.57
2022-08-19T05:09:56.651Z,1000.54
2022-08-19T05:10:34.954Z,1000.54
2022-08-19T05:11:34.002Z,1000.48
2022-08-19T05:12:33.954Z,1000.39
2022-08-19T05:13:33.934Z,1000.36
2022-08-19T05:14:33.931Z,1000.28
2022-08-19T05:15:33.903Z,1000.31
2022-08-19T05:16:33.927Z,1000.34
2022-08-19T05:17:38.418Z,1000.37
2022-08-19T05:18:34.875Z,1000.38
2022-08-19T05:19:33.864Z,1000.37
2022-08-19T05:20:33.854Z,1000.40
2022-08-19T05:21:33.896Z,1000.44
2022-08-19T05:22:33.827Z,1000.45
2022-08-19T05:23:33.792Z,1000.51
2022-08-19T05:24:33.830Z,1000.53
2022-08-19T05:25:33.808Z,1000.58
2022-08-19T05:26:33.825Z,1000.64
2022-08-19T05:27:33.774Z,1000.66
2022-08-19T05:28:33.759Z,1000.65
2022-08-19T05:29:36.316Z,1000.58
2022-08-19T05:30:46.833Z,1000.56
2022-08-19T05:31:34.795Z,1000.57
2022-08-19T05:32:33.728Z,1000.54
2022-08-19T05:33:33.723Z,1000.52
2022-08-19T05:34:33.704Z,1000.58
2022-08-19T05:35:34.751Z,1000.63
2022-08-19T05:36:33.717Z,1000.64
2022-08-19T05:37:33.647Z,1000.65
2022-08-19T05:38:33.638Z,1000.69
2022-08-19T05:39:33.652Z,1000.74
2022-08-19T05:40:33.635Z,1000.74
2022-08-19T05:41:33.647Z,1000.72
2022-08-19T05:42:33.624Z,1000.75
2022-08-19T05:43:33.603Z,1000.74
2022-08-19T05:44:33.599Z,1000.79
2022-08-19T05:45:33.558Z,1000.83
2022-08-19T05:46:33.587Z,1000.83
2022-08-19T05:47:33.549Z,1000.87
2022-08-19T05:48:33.562Z,1000.81
2022-08-19T05:49:33.522Z,1000.83
2022-08-19T05:50:33.510Z,1000.79
2022-08-19T05:51:33.537Z,1000.82
2022-08-19T05:52:33.619Z,1000.80
2022-08-19T05:53:33.474Z,1000.88
2022-08-19T05:54:33.462Z,1000.87
2022-08-19T05:55:33.465Z,1000.87
2022-08-19T05:56:33.468Z,1000.91
2022-08-19T05:57:33.423Z,1000.85
2022-08-19T05:58:33.424Z,1000.86
2022-08-19T05:59:33.406Z,1000.92
2022-08-19T06:00:33.410Z,1000.94
2022-08-19T06:01:33.434Z,1000.91
2022-08-19T06:02:33.392Z,1000.94
2022-08-19T06:03:33.369Z,1001.00
2022-08-19T06:04:33.339Z,1001.03
2022-08-19T06:05:33.350Z,1001.05
2022-08-19T06:06:34.384Z,1001.09
2022-08-19T06:07:33.304Z,1001.04
2022-08-19T06:08:34.008Z,1001.07
2022-08-19T06:09:33.313Z,1001.06
2022-08-19T06:10:33.281Z,1001.09
2022-08-19T06:11:33.328Z,1001.09
2022-08-19T06:12:33.252Z,1001.07
2022-08-19T06:13:33.368Z,1001.12
2022-08-19T06:14:33.414Z,1001.16
2022-08-19T06:15:33.247Z,1001.17
2022-08-19T06:16:33.278Z,1001.19
2022-08-19T06:17:33.220Z,1001.18
2022-08-19T06:18:33.187Z,1001.21
2022-08-19T06:19:33.190Z,1001.23
2022-08-19T06:20:54.387Z,1001.26
2022-08-19T06:21:34.199Z,1001.29
2022-08-19T06:22:33.153Z,1001.29
2022-08-19T06:23:33.145Z,1001.27
2022-08-19T06:24:33.122Z,1001.23
2022-08-19T06:25:33.120Z,1001.27
2022-08-19T06:26:33.213Z,1001.24
2022-08-19T06:27:33.127Z,1001.28
2022-08-19T06:28:33.096Z,1001.24
2022-08-19T06:29:33.061Z,1001.25
2022-08-19T06:30:33.074Z,1001.24
2022-08-19T06:31:33.101Z,1001.26
2022-08-19T06:32:33.056Z,1001.24
2022-08-19T06:33:33.027Z,1001.20
2022-08-19T06:34:33.032Z,1001.24
2022-08-19T06:35:33.024Z,1001.22
2022-08-19T06:36:33.019Z,1001.21
2022-08-19T06:37:32.970Z,1001.24
2022-08-19T06:38:32.952Z,1001.27
2022-08-19T06:39:33.004Z,1001.25
2022-08-19T06:40:32.970Z,1001.24
2022-08-19T06:41:32.995Z,1001.28
2022-08-19T06:42:32.925Z,1001.31
2022-08-19T06:43:32.918Z,1001.30
2022-08-19T06:44:32.909Z,1001.30
2022-08-19T06:45:34.947Z,1001.29
2022-08-19T06:46:33.582Z,1001.27
2022-08-19T06:47:32.892Z,1001.33
2022-08-19T06:48:34.649Z,1001.36
2022-08-19T06:49:33.844Z,1001.36
2022-08-19T06:50:32.840Z,1001.43
2022-08-19T06:52:34.049Z,1001.45
2022-08-19T06:53:32.808Z,1001.53
2022-08-19T06:54:32.789Z,1001.59
2022-08-19T06:55:33.775Z,1001.55
2022-08-19T06:56:32.811Z,1001.57
2022-08-19T06:57:32.735Z,1001.63
2022-08-19T06:58:32.749Z,1001.64
2022-08-19T06:59:32.737Z,1001.63
2022-08-19T07:00:32.813Z,1001.66
2022-08-19T07:01:32.764Z,1001.70
2022-08-19T07:02:32.700Z,1001.66
2022-08-19T07:03:32.702Z,1001.66
2022-08-19T07:04:32.673Z,1001.66
2022-08-19T07:05:32.649Z,1001.65
2022-08-19T07:06:43.891Z,1001.64
2022-08-19T07:07:33.646Z,1001.66
2022-08-19T07:08:32.708Z,1001.75
2022-08-19T07:09:32.640Z,1001.76
2022-08-19T07:10:32.600Z,1001.77
2022-08-19T07:11:32.653Z,1001.80
2022-08-19T07:12:32.591Z,1001.80
2022-08-19T07:13:32.582Z,1001.82
2022-08-19T07:14:32.561Z,1001.82
2022-08-19T07:15:32.551Z,1001.84
2022-08-19T07:16:32.580Z,1001.83
2022-08-19T07:17:34.567Z,1001.83
2022-08-19T07:18:32.540Z,1001.89
2022-08-19T07:19:32.530Z,1001.93
2022-08-19T07:20:32.491Z,1001.91
2022-08-19T07:21:32.553Z,1001.98
2022-08-19T07:22:33.474Z,1001.98
2022-08-19T07:23:32.499Z,1001.99
2022-08-19T07:24:33.696Z,1002.00
2022-08-19T07:25:33.427Z,1001.99
2022-08-19T07:26:32.528Z,1001.99
2022-08-19T07:27:33.583Z,1002.02
2022-08-19T07:28:32.397Z,1002.03
2022-08-19T07:29:32.392Z,1002.03
2022-08-19T07:30:32.390Z,1002.05
2022-08-19T07:31:32.433Z,1002.03
2022-08-19T07:32:32.592Z,1002.03
2022-08-19T07:33:32.353Z,1002.06
2022-08-19T07:34:32.316Z,1002.04
2022-08-19T07:35:32.314Z,1002.04
2022-08-19T07:36:32.348Z,1002.06
2022-08-19T07:37:33.532Z,1002.05
2022-08-19T07:38:32.297Z,1002.05
2022-08-19T07:39:32.325Z,1001.99
2022-08-19T07:40:32.258Z,1002.08
2022-08-19T07:41:32.326Z,1002.04
2022-08-19T07:42:32.263Z,1002.02
2022-08-19T07:43:34.708Z,1001.94
2022-08-19T07:44:32.280Z,1001.97
2022-08-19T07:45:32.220Z,1001.98
2022-08-19T07:46:32.247Z,1001.98
2022-08-19T07:47:49.775Z,1002.01
2022-08-19T07:48:33.160Z,1002.03
2022-08-19T07:49:32.177Z,1002.01
2022-08-19T07:50:32.169Z,1002.08
2022-08-19T07:51:36.936Z,1002.06
2022-08-19T07:52:33.115Z,1002.07
2022-08-19T07:53:33.268Z,1002.06
2022-08-19T07:54:32.096Z,1002.08
2022-08-19T07:55:42.296Z,1002.07
2022-08-19T07:56:33.149Z,1002.10
2022-08-19T07:57:32.229Z,1002.15
2022-08-19T07:58:32.066Z,1002.17
2022-08-19T07:59:32.077Z,1002.17
2022-08-19T08:00:32.048Z,1002.16
2022-08-19T08:01:32.163Z,1002.11
2022-08-19T08:02:32.037Z,1002.17
2022-08-19T08:03:32.005Z,1002.14
2022-08-19T08:04:31.969Z,1002.16
2022-08-19T08:05:34.913Z,1002.17
2022-08-19T08:06:32.016Z,1002.18
2022-08-19T08:07:31.987Z,1002.23
2022-08-19T08:08:31.999Z,1002.24
2022-08-19T08:09:31.954Z,1002.28
2022-08-19T08:10:31.920Z,1002.27
2022-08-19T08:11:31.984Z,1002.25
2022-08-19T08:12:34.779Z,1002.27
2022-08-19T08:13:31.904Z,1002.28
2022-08-19T08:14:35.125Z,1002.28
2022-08-19T08:15:31.873Z,1002.30
2022-08-19T08:16:31.893Z,1002.28
2022-08-19T08:17:48.625Z,1002.32
2022-08-19T08:18:32.833Z,1002.33
2022-08-19T08:19:31.831Z,1002.34
2022-08-19T08:20:31.825Z,1002.31
2022-08-19T08:21:31.904Z,1002.34
2022-08-19T08:22:31.796Z,1002.37
2022-08-19T08:23:31.784Z,1002.35
2022-08-19T08:24:31.807Z,1002.38
2022-08-19T08:25:32.559Z,1002.38
2022-08-19T08:26:31.811Z,1002.40
2022-08-19T08:27:31.750Z,1002.38
2022-08-19T08:28:31.726Z,1002.47
2022-08-19T08:29:34.920Z,1002.48
2022-08-19T08:30:32.741Z,1002.44
2022-08-19T08:31:31.747Z,1002.45
2022-08-19T08:32:31.678Z,1002.44
2022-08-19T08:33:34.689Z,1002.45
2022-08-19T08:34:31.636Z,1002.46
2022-08-19T08:35:31.658Z,1002.42
2022-08-19T08:36:31.681Z,1002.46
2022-08-19T08:37:31.629Z,1002.43
2022-08-19T08:38:33.629Z,1002.44
2022-08-19T08:39:32.647Z,1002.46
2022-08-19T08:40:31.600Z,1002.44
2022-08-19T08:41:31.639Z,1002.53
2022-08-19T08:42:31.568Z,1002.52
2022-08-19T08:43:32.524Z,1002.56
2022-08-19T08:44:31.556Z,1002.56
2022-08-19T08:45:32.964Z,1002.64
2022-08-19T08:46:32.751Z,1002.62
2022-08-19T08:47:31.546Z,1002.61
2022-08-19T08:48:31.512Z,1002.63
2022-08-19T08:49:31.505Z,1002.59
2022-08-19T08:50:31.481Z,1002.59
2022-08-19T08:51:34.983Z,1002.56
2022-08-19T08:52:32.189Z,1002.58
2022-08-19T08:53:34.416Z,1002.53
2022-08-19T08:54:31.441Z,1002.59
2022-08-19T08:55:36.439Z,1002.53
2022-08-19T08:56:32.546Z,1002.50
2022-08-19T08:57:37.630Z,1002.50
2022-08-19T08:58:32.419Z,1002.51
2022-08-19T08:59:31.383Z,1002.50
2022-08-19T09:00:31.375Z,1002.45
2022-08-19T09:01:31.427Z,1002.41
2022-08-19T09:02:31.335Z,1002.37
2022-08-19T09:03:31.593Z,1002.38
2022-08-19T09:04:31.317Z,1002.41
2022-08-19T09:05:39.551Z,1002.47
2022-08-19T09:06:32.377Z,1002.51
2022-08-19T09:07:34.754Z,1002.45
2022-08-19T09:08:32.298Z,1002.47
2022-08-19T09:09:31.285Z,1002.49
2022-08-19T09:10:31.265Z,1002.44
2022-08-19T09:11:43.001Z,1002.42
2022-08-19T09:12:32.238Z,1002.43
2022-08-19T09:13:31.253Z,1002.43
2022-08-19T09:14:49.806Z,1002.43
2022-08-19T09:15:33.344Z,1002.40
2022-08-19T09:16:31.221Z,1002.42
2022-08-19T09:17:31.187Z,1002.36
2022-08-19T09:18:31.180Z,1002.40
2022-08-19T09:19:31.169Z,1002.41
2022-08-19T09:20:31.148Z,1002.40
2022-08-19T09:21:33.301Z,1002.42
2022-08-19T09:22:31.126Z,1002.49
2022-08-19T09:23:31.146Z,1002.48
2022-08-19T09:24:31.391Z,1002.50
2022-08-19T09:25:31.099Z,1002.42
2022-08-19T09:26:47.452Z,1002.40
2022-08-19T09:27:42.017Z,1002.36
2022-08-19T09:28:32.063Z,1002.32
2022-08-19T09:29:31.053Z,1002.32
2022-08-19T09:30:31.327Z,1002.32
2022-08-19T09:31:31.073Z,1002.34
2022-08-19T09:32:31.050Z,1002.36
2022-08-19T09:33:31.021Z,1002.40
2022-08-19T09:34:31.008Z,1002.42
2022-08-19T09:35:31.960Z,1002.44
2022-08-19T09:36:34.886Z,1002.49
2022-08-19T09:37:30.997Z,1002.50
2022-08-19T09:38:30.952Z,1002.50
2022-08-19T09:39:36.136Z,1002.54
2022-08-19T09:40:37.768Z,1002.54
2022-08-19T09:41:32.001Z,1002.55
2022-08-19T09:42:35.345Z,1002.61
2022-08-19T09:43:33.622Z,1002.61
2022-08-19T09:44:31.894Z,1002.61
2022-08-19T09:45:30.871Z,1002.63
2022-08-19T09:46:30.940Z,1002.62
2022-08-19T09:47:30.855Z,1002.65
2022-08-19T09:48:30.823Z,1002.62
2022-08-19T09:49:30.835Z,1002.60
2022-08-19T09:50:30.795Z,1002.57
2022-08-19T09:51:30.872Z,1002.54
2022-08-19T09:52:32.761Z,1002.57
2022-08-19T09:53:30.801Z,1002.62
2022-08-19T09:54:30.771Z,1002.59
2022-08-19T09:55:31.942Z,1002.59
2022-08-19T09:56:30.811Z,1002.64
2022-08-19T09:57:30.732Z,1002.60
2022-08-19T09:58:30.737Z,1002.62
2022-08-19T09:59:30.727Z,1002.57
2022-08-19T10:00:30.904Z,1002.53
2022-08-19T10:01:30.766Z,1002.54
2022-08-19T10:02:30.664Z,1002.53
2022-08-19T10:03:30.675Z,1002.48
2022-08-19T10:04:30.634Z,1002.49
2022-08-19T10:05:30.656Z,1002.48
2022-08-19T10:06:43.254Z,1002.53
2022-08-19T10:07:36.240Z,1002.57
2022-08-19T10:08:31.615Z,1002.61
2022-08-19T10:09:34.494Z,1002.60
2022-08-19T10:10:30.585Z,1002.59
2022-08-19T10:11:39.946Z,1002.58
2022-08-19T10:12:31.579Z,1002.52
2022-08-19T10:13:30.552Z,1002.52
2022-08-19T10:14:30.544Z,1002.46
2022-08-19T10:15:30.528Z,1002.46
2022-08-19T10:16:31.563Z,1002.43
2022-08-19T10:17:33.441Z,1002.44
2022-08-19T10:18:30.569Z,1002.48
2022-08-19T10:19:30.479Z,1002.52
2022-08-19T10:20:30.472Z,1002.51
2022-08-19T10:21:32.172Z,1002.54
2022-08-19T10:22:30.453Z,1002.54
2022-08-19T10:23:30.455Z,1002.48
2022-08-19T10:24:30.432Z,1002.47
2022-08-19T10:25:30.439Z,1002.43
2022-08-19T10:26:30.469Z,1002.45
2022-08-19T10:27:32.172Z,1002.51
2022-08-19T10:28:30.379Z,1002.52
2022-08-19T10:29:32.225Z,1002.55
2022-08-19T10:30:30.368Z,1002.51
2022-08-19T10:31:58.812Z,1002.57
2022-08-19T10:32:33.998Z,1002.54
2022-08-19T10:33:39.017Z,1002.49
2022-08-19T10:34:31.325Z,1002.50
2022-08-19T10:35:30.326Z,1002.47
2022-08-19T10:36:30.350Z,1002.42
2022-08-19T10:37:31.362Z,1002.48
2022-08-19T10:38:31.858Z,1002.50
2022-08-19T10:39:30.495Z,1002.50
2022-08-19T10:40:30.333Z,1002.56
2022-08-19T10:41:30.315Z,1002.56
2022-08-19T10:42:30.226Z,1002.55
2022-08-19T10:43:30.258Z,1002.60
2022-08-19T10:44:32.016Z,1002.61
2022-08-19T10:45:30.200Z,1002.64
2022-08-19T10:46:30.238Z,1002.68
2022-08-19T10:47:31.775Z,1002.67
2022-08-19T10:48:30.198Z,1002.72
2022-08-19T10:49:30.168Z,1002.74
2022-08-19T10:50:30.206Z,1002.70
2022-08-19T10:51:30.167Z,1002.77
2022-08-19T10:52:32.409Z,1002.76
2022-08-19T10:53:30.122Z,1002.82
2022-08-19T10:54:33.361Z,1002.80
2022-08-19T10:55:30.086Z,1002.85
2022-08-19T10:56:30.132Z,1002.87
2022-08-19T10:57:40.855Z,1002.93
2022-08-19T10:58:31.078Z,1002.92
2022-08-19T10:59:35.326Z,1002.92
2022-08-19T11:00:31.030Z,1002.90
2022-08-19T11:01:30.089Z,1002.97
2022-08-19T11:02:30.017Z,1002.97
2022-08-19T11:03:30.015Z,1002.99
2022-08-19T11:04:30.000Z,1003.02
2022-08-19T11:05:29.972Z,1003.02
2022-08-19T11:06:31.027Z,1003.04
2022-08-19T11:07:29.964Z,1003.05
2022-08-19T11:08:29.949Z,1003.04
2022-08-19T11:09:34.015Z,1003.02
2022-08-19T11:10:29.940Z,1003.05
2022-08-19T11:11:29.967Z,1003.03
2022-08-19T11:12:29.891Z,1003.06
2022-08-19T11:13:29.903Z,1003.04
2022-08-19T11:14:30.534Z,1003.03
2022-08-19T11:15:29.856Z,1003.00
2022-08-19T11:16:29.892Z,1002.99
2022-08-19T11:17:29.826Z,1003.01
2022-08-19T11:18:29.848Z,1003.01
2022-08-19T11:19:29.801Z,1003.02
2022-08-19T11:20:29.828Z,1003.00
2022-08-19T11:21:29.850Z,1003.01
2022-08-19T11:22:36.730Z,1003.02
2022-08-19T11:23:30.761Z,1003.10
2022-08-19T11:24:29.787Z,1003.12
2022-08-19T11:25:29.753Z,1003.19
2022-08-19T11:26:29.803Z,1003.16
2022-08-19T11:27:29.730Z,1003.11
2022-08-19T11:28:29.724Z,1003.13
2022-08-19T11:29:29.711Z,1003.10
2022-08-19T11:30:29.680Z,1003.20
2022-08-19T11:31:29.717Z,1003.20
2022-08-19T11:32:29.685Z,1003.27
2022-08-19T11:33:29.664Z,1003.30
2022-08-19T11:34:29.659Z,1003.30
2022-08-19T11:35:29.644Z,1003.31
2022-08-19T11:36:29.665Z,1003.37
2022-08-19T11:37:29.602Z,1003.39
2022-08-19T11:38:29.650Z,1003.40
2022-08-19T11:39:29.600Z,1003.41
2022-08-19T11:40:29.574Z,1003.43
2022-08-19T11:41:29.595Z,1003.46
2022-08-19T11:42:29.566Z,1003.46
2022-08-19T11:43:30.874Z,1003.46
2022-08-19T11:44:29.522Z,1003.47
2022-08-19T11:45:29.535Z,1003.47
2022-08-19T11:46:29.552Z,1003.48
2022-08-19T11:47:29.498Z,1003.48
2022-08-19T11:48:29.511Z,1003.46
2022-08-19T11:49:29.465Z,1003.41
2022-08-19T11:50:29.472Z,1003.38
2022-08-19T11:51:29.514Z,1003.43
2022-08-19T11:52:29.480Z,1003.39
2022-08-19T11:53:29.424Z,1003.36
2022-08-19T11:54:29.430Z,1003.40
2022-08-19T11:55:29.411Z,1003.41
2022-08-19T11:56:29.463Z,1003.42
2022-08-19T11:57:29.393Z,1003.42
2022-08-19T11:58:29.364Z,1003.47
2022-08-19T11:59:29.366Z,1003.47
2022-08-19T12:00:29.355Z,1003.47
2022-08-19T12:01:29.393Z,1003.52
2022-08-19T12:02:29.354Z,1003.52
2022-08-19T12:03:29.363Z,1003.54
2022-08-19T12:04:29.318Z,1003.53
2022-08-19T12:05:29.293Z,1003.53
2022-08-19T12:06:29.329Z,1003.54
2022-08-19T12:07:29.270Z,1003.57